sensor_id;sensor_type;location;lat;lon;timestamp;pressure;altitude;pressure_sealevel;temperature;humidity
41800;BME280;27468;47.460;19.034;2023-04-05T00:00:38;100735.56;;;2.85;42.27
41800;BME280;27468;47.460;19.034;2023-04-05T00:03:03;100732.16;;;2.92;41.96
41800;BME280;27468;47.460;19.034;2023-04-05T00:05:30;100717.34;;;2.87;42.33
41800;BME280;27468;47.460;19.034;2023-04-05T00:07:56;100733.00;;;2.90;42.15
41800;BME280;27468;47.460;19.034;2023-04-05T00:10:22;100735.59;;;2.88;41.96
41800;BME280;27468;47.460;19.034;2023-04-05T00:12:47;100745.19;;;2.92;42.17
41800;BME280;27468;47.460;19.034;2023-04-05T00:15:15;100741.72;;;2.93;42.22
41800;BME280;27468;47.460;19.034;2023-04-05T00:17:40;100727.00;;;2.95;41.88
41800;BME280;27468;47.460;19.034;2023-04-05T00:20:08;100725.94;;;2.81;42.41
41800;BME280;27468;47.460;19.034;2023-04-05T00:22:34;100727.75;;;2.87;42.36
41800;BME280;27468;47.460;19.034;2023-04-05T00:25:01;100711.81;;;2.69;42.74
41800;BME280;27468;47.460;19.034;2023-04-05T00:27:27;100695.41;;;2.73;42.54
41800;BME280;27468;47.460;19.034;2023-04-05T00:29:53;100691.78;;;2.63;42.63
41800;BME280;27468;47.460;19.034;2023-04-05T00:32:18;100724.91;;;2.73;42.90
41800;BME280;27468;47.460;19.034;2023-04-05T00:34:43;100697.69;;;2.54;43.06
41800;BME280;27468;47.460;19.034;2023-04-05T00:37:10;100621.59;;;2.18;42.93
41800;BME280;27468;47.460;19.034;2023-04-05T00:39:40;100712.56;;;2.61;43.16
41800;BME280;27468;47.460;19.034;2023-04-05T00:42:06;100681.97;;;2.48;42.92
41800;BME280;27468;47.460;19.034;2023-04-05T00:44:32;100729.22;;;2.71;43.09
41800;BME280;27468;47.460;19.034;2023-04-05T00:47:01;100717.00;;;2.67;43.16
41800;BME280;27468;47.460;19.034;2023-04-05T00:49:31;100721.25;;;2.62;43.06
41800;BME280;27468;47.460;19.034;2023-04-05T00:51:57;100723.91;;;2.65;43.18
41800;BME280;27468;47.460;19.034;2023-04-05T00:54:24;100723.13;;;2.69;43.01
41800;BME280;27468;47.460;19.034;2023-04-05T00:56:50;100729.31;;;2.76;42.80
41800;BME280;27468;47.460;19.034;2023-04-05T00:59:18;100663.63;;;2.41;42.87
41800;BME280;27468;47.460;19.034;2023-04-05T01:01:44;100717.78;;;2.61;42.97
41800;BME280;27468;47.460;19.034;2023-04-05T01:04:22;100705.41;;;2.50;43.04
41800;BME280;27468;47.460;19.034;2023-04-05T01:07:01;100722.13;;;2.62;43.24
41800;BME280;27468;47.460;19.034;2023-04-05T01:09:40;100667.66;;;2.23;43.22
41800;BME280;27468;47.460;19.034;2023-04-05T01:12:14;100665.19;;;2.29;43.17
41800;BME280;27468;47.460;19.034;2023-04-05T01:14:46;100722.88;;;2.55;43.17
41800;BME280;27468;47.460;19.034;2023-04-05T01:17:12;100715.03;;;2.54;43.31
41800;BME280;27468;47.460;19.034;2023-04-05T01:19:37;100707.03;;;2.43;43.05
41800;BME280;27468;47.460;19.034;2023-04-05T01:31:19;100714.69;;;2.36;43.97
41800;BME280;27468;47.460;19.034;2023-04-05T01:33:43;100674.31;;;2.09;43.95
41800;BME280;27468;47.460;19.034;2023-04-05T01:36:23;100675.19;;;2.10;43.86
41800;BME280;27468;47.460;19.034;2023-04-05T01:38:52;100656.03;;;2.05;43.83
41800;BME280;27468;47.460;19.034;2023-04-05T01:41:19;100705.00;;;2.25;44.00
41800;BME280;27468;47.460;19.034;2023-04-05T01:43:45;100706.00;;;2.35;43.88
41800;BME280;27468;47.460;19.034;2023-04-05T01:46:11;100698.88;;;2.23;44.05
41800;BME280;27468;47.460;19.034;2023-04-05T01:48:36;100708.38;;;2.21;44.03
41800;BME280;27468;47.460;19.034;2023-04-05T01:51:02;100641.78;;;1.86;44.16
41800;BME280;27468;47.460;19.034;2023-04-05T01:53:27;100661.13;;;1.98;44.46
41800;BME280;27468;47.460;19.034;2023-04-05T01:55:52;100696.19;;;2.19;44.24
41800;BME280;27468;47.460;19.034;2023-04-05T01:58:18;100709.22;;;2.20;44.62
41800;BME280;27468;47.460;19.034;2023-04-05T02:00:43;100709.34;;;2.26;44.57
41800;BME280;27468;47.460;19.034;2023-04-05T02:03:09;100668.84;;;1.95;45.09
41800;BME280;27468;47.460;19.034;2023-04-05T02:05:34;100641.72;;;1.81;44.86
41800;BME280;27468;47.460;19.034;2023-04-05T02:07:59;100680.16;;;1.97;44.90
41800;BME280;27468;47.460;19.034;2023-04-05T02:10:25;100684.72;;;2.09;44.83
41800;BME280;27468;47.460;19.034;2023-04-05T02:12:50;100680.38;;;2.08;44.78
41800;BME280;27468;47.460;19.034;2023-04-05T02:15:16;100688.84;;;1.98;45.34
41800;BME280;27468;47.460;19.034;2023-04-05T02:17:41;100710.72;;;2.09;45.10
41800;BME280;27468;47.460;19.034;2023-04-05T02:20:10;100644.06;;;1.68;45.28
41800;BME280;27468;47.460;19.034;2023-04-05T02:22:38;100687.84;;;1.91;45.30
41800;BME280;27468;47.460;19.034;2023-04-05T02:25:05;100691.25;;;1.89;45.46
41800;BME280;27468;47.460;19.034;2023-04-05T02:27:33;100641.47;;;1.68;45.32
41800;BME280;27468;47.460;19.034;2023-04-05T02:29:58;100706.28;;;2.04;45.25
41800;BME280;27468;47.460;19.034;2023-04-05T02:32:24;100650.22;;;1.74;45.08
41800;BME280;27468;47.460;19.034;2023-04-05T02:34:49;100664.09;;;1.73;45.49
41800;BME280;27468;47.460;19.034;2023-04-05T02:37:17;100705.16;;;1.91;45.51
41800;BME280;27468;47.460;19.034;2023-04-05T02:39:42;100712.09;;;1.90;45.75
41800;BME280;27468;47.460;19.034;2023-04-05T02:42:08;100674.66;;;1.82;45.59
41800;BME280;27468;47.460;19.034;2023-04-05T02:44:33;100671.81;;;1.69;45.71
41800;BME280;27468;47.460;19.034;2023-04-05T02:46:58;100706.88;;;1.90;45.55
41800;BME280;27468;47.460;19.034;2023-04-05T02:49:24;100649.16;;;1.63;45.77
41800;BME280;27468;47.460;19.034;2023-04-05T02:51:49;100699.13;;;1.92;45.78
41800;BME280;27468;47.460;19.034;2023-04-05T02:54:15;100692.06;;;1.86;45.80
41800;BME280;27468;47.460;19.034;2023-04-05T02:56:40;100705.97;;;1.88;45.84
41800;BME280;27468;47.460;19.034;2023-04-05T02:59:06;100688.31;;;1.71;46.35
41800;BME280;27468;47.460;19.034;2023-04-05T03:01:32;100681.13;;;1.59;47.61
41800;BME280;27468;47.460;19.034;2023-04-05T03:04:01;100705.56;;;1.67;47.35
41800;BME280;27468;47.460;19.034;2023-04-05T03:06:26;100694.09;;;1.57;47.45
41800;BME280;27468;47.460;19.034;2023-04-05T03:08:51;100690.66;;;1.58;46.96
41800;BME280;27468;47.460;19.034;2023-04-05T03:11:18;100704.34;;;1.51;47.93
41800;BME280;27468;47.460;19.034;2023-04-05T03:13:43;100709.41;;;1.45;48.45
41800;BME280;27468;47.460;19.034;2023-04-05T03:16:09;100654.13;;;1.12;49.54
41800;BME280;27468;47.460;19.034;2023-04-05T03:18:34;100668.88;;;1.13;49.88
41800;BME280;27468;47.460;19.034;2023-04-05T03:20:59;100647.59;;;0.91;50.05
41800;BME280;27468;47.460;19.034;2023-04-05T03:23:27;100665.97;;;1.01;50.29
41800;BME280;27468;47.460;19.034;2023-04-05T03:26:01;100711.50;;;1.24;50.22
41800;BME280;27468;47.460;19.034;2023-04-05T03:28:28;100677.94;;;0.94;50.60
41800;BME280;27468;47.460;19.034;2023-04-05T03:30:54;100699.66;;;0.97;51.13
41800;BME280;27468;47.460;19.034;2023-04-05T03:33:20;100663.50;;;0.69;51.70
41800;BME280;27468;47.460;19.034;2023-04-05T03:35:46;100709.75;;;0.85;51.88
41800;BME280;27468;47.460;19.034;2023-04-05T03:38:11;100706.16;;;0.80;52.10
41800;BME280;27468;47.460;19.034;2023-04-05T03:40:37;100667.69;;;0.64;51.86
41800;BME280;27468;47.460;19.034;2023-04-05T03:43:04;100677.19;;;0.63;52.22
41800;BME280;27468;47.460;19.034;2023-04-05T03:45:30;100691.91;;;0.64;52.19
41800;BME280;27468;47.460;19.034;2023-04-05T03:47:56;100677.03;;;0.56;52.38
41800;BME280;27468;47.460;19.034;2023-04-05T03:50:22;100673.41;;;0.49;53.13
41800;BME280;27468;47.460;19.034;2023-04-05T03:52:48;100739.78;;;0.76;53.12
41800;BME280;27468;47.460;19.034;2023-04-05T03:55:13;100677.56;;;0.43;53.67
41800;BME280;27468;47.460;19.034;2023-04-05T03:57:41;100732.59;;;0.65;53.93
41800;BME280;27468;47.460;19.034;2023-04-05T04:00:07;100726.34;;;0.57;53.72
41800;BME280;27468;47.460;19.034;2023-04-05T04:02:42;100735.94;;;0.61;54.19
41800;BME280;27468;47.460;19.034;2023-04-05T04:05:09;100730.34;;;0.45;54.06
41800;BME280;27468;47.460;19.034;2023-04-05T04:07:35;100739.13;;;0.50;54.71
41800;BME280;27468;47.460;19.034;2023-04-05T04:10:00;100690.81;;;0.22;54.49
41800;BME280;27468;47.460;19.034;2023-04-05T04:12:26;100739.97;;;0.49;54.38
41800;BME280;27468;47.460;19.034;2023-04-05T04:14:51;100732.78;;;0.39;54.71
41800;BME280;27468;47.460;19.034;2023-04-05T04:19:52;100716.13;;;0.30;54.50
41800;BME280;27468;47.460;19.034;2023-04-05T04:22:17;100711.47;;;0.19;54.60
41800;BME280;27468;47.460;19.034;2023-04-05T04:24:47;100698.41;;;0.14;54.81
41800;BME280;27468;47.460;19.034;2023-04-05T04:27:14;100731.69;;;0.30;54.85
41800;BME280;27468;47.460;19.034;2023-04-05T04:29:41;100731.72;;;0.32;55.10
41800;BME280;27468;47.460;19.034;2023-04-05T04:32:12;100735.13;;;0.29;55.37
41800;BME280;27468;47.460;19.034;2023-04-05T04:34:39;100741.31;;;0.35;55.19
41800;BME280;27468;47.460;19.034;2023-04-05T04:37:15;100696.63;;;0.13;55.09
41800;BME280;27468;47.460;19.034;2023-04-05T04:39:47;100739.72;;;0.40;55.28
41800;BME280;27468;47.460;19.034;2023-04-05T04:42:14;100737.22;;;0.43;54.72
41800;BME280;27468;47.460;19.034;2023-04-05T04:44:47;100702.13;;;0.24;54.96
41800;BME280;27468;47.460;19.034;2023-04-05T04:47:12;100692.66;;;0.26;54.53
41800;BME280;27468;47.460;19.034;2023-04-05T04:49:38;100715.56;;;0.42;54.52
41800;BME280;27468;47.460;19.034;2023-04-05T04:52:06;100704.16;;;0.36;54.94
41800;BME280;27468;47.460;19.034;2023-04-05T04:54:33;100719.72;;;0.36;55.02
41800;BME280;27468;47.460;19.034;2023-04-05T04:56:59;100749.78;;;0.62;55.21
41800;BME280;27468;47.460;19.034;2023-04-05T04:59:26;100687.47;;;0.26;55.29
41800;BME280;27468;47.460;19.034;2023-04-05T05:01:51;100748.97;;;0.63;55.18
41800;BME280;27468;47.460;19.034;2023-04-05T05:04:17;100750.13;;;0.74;54.94
41800;BME280;27468;47.460;19.034;2023-04-05T05:06:42;100757.94;;;0.76;54.69
41800;BME280;27468;47.460;19.034;2023-04-05T05:09:08;100708.03;;;0.51;54.64
41800;BME280;27468;47.460;19.034;2023-04-05T05:11:33;100754.47;;;0.75;54.61
41800;BME280;27468;47.460;19.034;2023-04-05T05:13:59;100709.88;;;0.55;54.22
41800;BME280;27468;47.460;19.034;2023-04-05T05:16:24;100749.31;;;0.77;54.12
41800;BME280;27468;47.460;19.034;2023-04-05T05:18:50;100759.22;;;0.91;54.06
41800;BME280;27468;47.460;19.034;2023-04-05T05:21:16;100761.19;;;1.02;53.80
41800;BME280;27468;47.460;19.034;2023-04-05T05:23:42;100742.81;;;0.92;53.95
41800;BME280;27468;47.460;19.034;2023-04-05T05:26:07;100740.34;;;0.98;53.46
41800;BME280;27468;47.460;19.034;2023-04-05T05:28:32;100764.06;;;1.12;53.75
41800;BME280;27468;47.460;19.034;2023-04-05T05:30:58;100758.94;;;1.15;53.43
41800;BME280;27468;47.460;19.034;2023-04-05T05:33:23;100756.34;;;1.17;53.24
41800;BME280;27468;47.460;19.034;2023-04-05T05:35:50;100775.78;;;1.32;53.15
41800;BME280;27468;47.460;19.034;2023-04-05T05:38:16;100750.50;;;1.25;53.25
41800;BME280;27468;47.460;19.034;2023-04-05T05:40:41;100771.63;;;1.39;52.91
41800;BME280;27468;47.460;19.034;2023-04-05T05:43:07;100715.56;;;1.11;52.86
41800;BME280;27468;47.460;19.034;2023-04-05T05:45:34;100756.94;;;1.41;52.71
41800;BME280;27468;47.460;19.034;2023-04-05T05:48:00;100764.94;;;1.50;52.35
41800;BME280;27468;47.460;19.034;2023-04-05T05:50:25;100770.25;;;1.55;52.16
41800;BME280;27468;47.460;19.034;2023-04-05T05:52:50;100753.56;;;1.45;52.29
41800;BME280;27468;47.460;19.034;2023-04-05T05:55:16;100729.28;;;1.43;50.55
41800;BME280;27468;47.460;19.034;2023-04-05T05:57:41;100746.25;;;1.67;48.55
41800;BME280;27468;47.460;19.034;2023-04-05T06:00:07;100761.13;;;1.74;46.49
41800;BME280;27468;47.460;19.034;2023-04-05T06:02:35;100688.56;;;1.42;46.12
41800;BME280;27468;47.460;19.034;2023-04-05T06:05:00;100736.00;;;1.74;45.31
41800;BME280;27468;47.460;19.034;2023-04-05T06:07:26;100740.41;;;1.78;44.55
41800;BME280;27468;47.460;19.034;2023-04-05T06:09:52;100729.13;;;1.76;43.83
41800;BME280;27468;47.460;19.034;2023-04-05T06:12:20;100725.59;;;1.73;43.94
41800;BME280;27468;47.460;19.034;2023-04-05T06:14:45;100752.75;;;1.87;44.06
41800;BME280;27468;47.460;19.034;2023-04-05T06:17:11;100728.38;;;1.82;43.67
41800;BME280;27468;47.460;19.034;2023-04-05T06:19:36;100754.81;;;2.03;43.90
41800;BME280;27468;47.460;19.034;2023-04-05T06:22:02;100733.84;;;1.95;44.24
41800;BME280;27468;47.460;19.034;2023-04-05T06:24:27;100751.50;;;2.10;43.76
41800;BME280;27468;47.460;19.034;2023-04-05T06:26:57;100740.16;;;2.07;44.01
41800;BME280;27468;47.460;19.034;2023-04-05T06:29:22;100739.47;;;2.15;43.78
41800;BME280;27468;47.460;19.034;2023-04-05T06:31:48;100742.31;;;2.27;43.61
41800;BME280;27468;47.460;19.034;2023-04-05T06:34:13;100735.22;;;2.19;43.89
41800;BME280;27468;47.460;19.034;2023-04-05T06:36:39;100706.31;;;2.05;43.13
41800;BME280;27468;47.460;19.034;2023-04-05T06:39:04;100734.28;;;2.15;42.92
41800;BME280;27468;47.460;19.034;2023-04-05T06:41:30;100717.94;;;2.22;43.21
41800;BME280;27468;47.460;19.034;2023-04-05T06:43:55;100749.50;;;2.42;42.97
41800;BME280;27468;47.460;19.034;2023-04-05T06:46:21;100734.63;;;2.35;43.02
41800;BME280;27468;47.460;19.034;2023-04-05T06:48:46;100750.53;;;2.50;43.03
41800;BME280;27468;47.460;19.034;2023-04-05T06:51:14;100714.75;;;2.39;43.15
41800;BME280;27468;47.460;19.034;2023-04-05T06:53:40;100737.56;;;2.52;42.68
41800;BME280;27468;47.460;19.034;2023-04-05T06:56:06;100752.53;;;2.65;42.61
41800;BME280;27468;47.460;19.034;2023-04-05T06:58:31;100698.38;;;2.44;42.81
41800;BME280;27468;47.460;19.034;2023-04-05T07:00:58;100750.19;;;2.79;42.96
41800;BME280;27468;47.460;19.034;2023-04-05T07:03:24;100748.50;;;2.81;42.82
41800;BME280;27468;47.460;19.034;2023-04-05T07:05:57;100734.59;;;2.80;43.01
41800;BME280;27468;47.460;19.034;2023-04-05T07:08:27;100696.91;;;2.60;41.19
41800;BME280;27468;47.460;19.034;2023-04-05T07:10:53;100701.44;;;2.70;41.11
41800;BME280;27468;47.460;19.034;2023-04-05T07:13:20;100740.06;;;2.97;40.80
41800;BME280;27468;47.460;19.034;2023-04-05T07:15:46;100759.41;;;3.11;40.73
41800;BME280;27468;47.460;19.034;2023-04-05T07:18:11;100744.56;;;3.07;40.78
41800;BME280;27468;47.460;19.034;2023-04-05T07:20:37;100739.47;;;3.13;40.99
41800;BME280;27468;47.460;19.034;2023-04-05T07:23:03;100762.44;;;3.37;40.27
41800;BME280;27468;47.460;19.034;2023-04-05T07:25:30;100764.94;;;3.31;40.08
41800;BME280;27468;47.460;19.034;2023-04-05T07:27:56;100706.44;;;3.12;39.82
41800;BME280;27468;47.460;19.034;2023-04-05T07:30:21;100751.09;;;3.35;39.92
41800;BME280;27468;47.460;19.034;2023-04-05T07:32:46;100732.69;;;3.24;40.01
41800;BME280;27468;47.460;19.034;2023-04-05T07:35:12;100744.22;;;3.40;40.16
41800;BME280;27468;47.460;19.034;2023-04-05T07:37:37;100689.19;;;3.19;39.96
41800;BME280;27468;47.460;19.034;2023-04-05T07:40:03;100700.63;;;3.28;39.81
41800;BME280;27468;47.460;19.034;2023-04-05T07:42:30;100712.03;;;3.37;39.37
41800;BME280;27468;47.460;19.034;2023-04-05T07:44:56;100751.44;;;3.59;40.02
41800;BME280;27468;47.460;19.034;2023-04-05T07:47:21;100705.06;;;3.36;39.65
41800;BME280;27468;47.460;19.034;2023-04-05T07:49:47;100747.22;;;3.68;38.98
41800;BME280;27468;47.460;19.034;2023-04-05T07:52:12;100747.31;;;3.74;38.74
41800;BME280;27468;47.460;19.034;2023-04-05T07:54:37;100729.09;;;3.77;38.51
41800;BME280;27468;47.460;19.034;2023-04-05T07:57:05;100694.84;;;3.52;38.76
41800;BME280;27468;47.460;19.034;2023-04-05T07:59:31;100747.44;;;3.83;39.09
41800;BME280;27468;47.460;19.034;2023-04-05T08:01:57;100721.19;;;3.72;39.02
41800;BME280;27468;47.460;19.034;2023-04-05T08:04:22;100744.97;;;3.95;38.96
41800;BME280;27468;47.460;19.034;2023-04-05T08:06:50;100745.91;;;4.00;38.78
41800;BME280;27468;47.460;19.034;2023-04-05T08:09:16;100732.91;;;4.02;38.48
41800;BME280;27468;47.460;19.034;2023-04-05T08:11:42;100743.53;;;4.21;37.86
41800;BME280;27468;47.460;19.034;2023-04-05T08:14:07;100726.84;;;4.07;38.01
41800;BME280;27468;47.460;19.034;2023-04-05T08:16:33;100727.69;;;4.03;38.16
41800;BME280;27468;47.460;19.034;2023-04-05T08:18:58;100726.03;;;4.13;37.79
41800;BME280;27468;47.460;19.034;2023-04-05T08:21:24;100698.09;;;4.00;37.72
41800;BME280;27468;47.460;19.034;2023-04-05T08:23:50;100722.56;;;4.14;37.83
41800;BME280;27468;47.460;19.034;2023-04-05T08:26:16;100718.28;;;4.17;37.92
41800;BME280;27468;47.460;19.034;2023-04-05T08:28:42;100728.84;;;4.29;37.38
41800;BME280;27468;47.460;19.034;2023-04-05T08:31:07;100734.97;;;4.33;37.59
41800;BME280;27468;47.460;19.034;2023-04-05T08:33:33;100712.22;;;4.21;37.92
41800;BME280;27468;47.460;19.034;2023-04-05T08:36:08;100743.84;;;4.47;37.58
41800;BME280;27468;47.460;19.034;2023-04-05T08:38:34;100682.72;;;4.28;37.65
41800;BME280;27468;47.460;19.034;2023-04-05T08:41:07;100723.94;;;4.58;37.77
41800;BME280;27468;47.460;19.034;2023-04-05T08:46:02;100727.59;;;4.77;38.01
41800;BME280;27468;47.460;19.034;2023-04-05T08:48:32;100680.44;;;4.59;37.20
41800;BME280;27468;47.460;19.034;2023-04-05T08:51:00;100732.13;;;4.98;36.90
41800;BME280;27468;47.460;19.034;2023-04-05T08:53:26;100719.09;;;5.03;36.43
41800;BME280;27468;47.460;19.034;2023-04-05T08:55:55;100678.94;;;4.91;36.84
41800;BME280;27468;47.460;19.034;2023-04-05T08:58:22;100725.38;;;5.30;36.61
41800;BME280;27468;47.460;19.034;2023-04-05T09:00:49;100718.44;;;5.34;36.71
41800;BME280;27468;47.460;19.034;2023-04-05T09:03:27;100693.97;;;5.23;36.26
41800;BME280;27468;47.460;19.034;2023-04-05T09:05:54;100706.25;;;5.33;36.40
41800;BME280;27468;47.460;19.034;2023-04-05T09:08:20;100693.19;;;5.35;36.24
41800;BME280;27468;47.460;19.034;2023-04-05T09:10:49;100699.34;;;5.46;35.89
41800;BME280;27468;47.460;19.034;2023-04-05T09:13:15;100679.25;;;5.36;36.04
41800;BME280;27468;47.460;19.034;2023-04-05T09:15:41;100711.66;;;5.63;35.94
41800;BME280;27468;47.460;19.034;2023-04-05T09:18:07;100701.25;;;5.73;36.34
41800;BME280;27468;47.460;19.034;2023-04-05T09:20:33;100709.97;;;5.79;35.65
41800;BME280;27468;47.460;19.034;2023-04-05T09:22:58;100660.19;;;5.59;35.86
41800;BME280;27468;47.460;19.034;2023-04-05T09:27:55;100670.72;;;5.81;35.73
41800;BME280;27468;47.460;19.034;2023-04-05T09:30:21;100706.66;;;6.12;34.99
41800;BME280;27468;47.460;19.034;2023-04-05T09:32:50;100702.31;;;6.19;34.96
41800;BME280;27468;47.460;19.034;2023-04-05T09:35:18;100686.59;;;6.14;34.47
41800;BME280;27468;47.460;19.034;2023-04-05T09:37:54;100670.91;;;6.16;34.70
41800;BME280;27468;47.460;19.034;2023-04-05T09:40:20;100675.31;;;6.31;34.12
41800;BME280;27468;47.460;19.034;2023-04-05T09:42:46;100680.53;;;6.29;34.10
41800;BME280;27468;47.460;19.034;2023-04-05T09:45:13;100693.63;;;6.41;34.82
41800;BME280;27468;47.460;19.034;2023-04-05T09:47:39;100685.78;;;6.47;34.37
41800;BME280;27468;47.460;19.034;2023-04-05T09:52:41;100684.97;;;6.77;34.04
41800;BME280;27468;47.460;19.034;2023-04-05T09:55:07;100676.22;;;6.78;33.72
41800;BME280;27468;47.460;19.034;2023-04-05T09:57:35;100678.84;;;6.66;33.04
41800;BME280;27468;47.460;19.034;2023-04-05T10:00:01;100641.25;;;6.49;33.63
41800;BME280;27468;47.460;19.034;2023-04-05T10:02:35;100673.59;;;6.83;33.93
41800;BME280;27468;47.460;19.034;2023-04-05T10:05:05;100665.75;;;6.81;33.59
41800;BME280;27468;47.460;19.034;2023-04-05T10:07:31;100657.88;;;6.87;33.80
41800;BME280;27468;47.460;19.034;2023-04-05T10:09:57;100672.69;;;7.02;33.47
41800;BME280;27468;47.460;19.034;2023-04-05T10:12:24;100635.16;;;6.82;34.01
41800;BME280;27468;47.460;19.034;2023-04-05T10:14:54;100663.97;;;7.03;33.68
41800;BME280;27468;47.460;19.034;2023-04-05T10:17:36;100636.03;;;6.88;33.87
41800;BME280;27468;47.460;19.034;2023-04-05T10:20:20;100643.00;;;7.00;33.78
41800;BME280;27468;47.460;19.034;2023-04-05T10:22:58;100649.09;;;7.05;31.66
41800;BME280;27468;47.460;19.034;2023-04-05T10:28:11;100658.72;;;7.02;31.09
41800;BME280;27468;47.460;19.034;2023-04-05T10:30:43;100650.84;;;6.95;30.60
41800;BME280;27468;47.460;19.034;2023-04-05T10:33:22;100639.50;;;7.03;31.09
41800;BME280;27468;47.460;19.034;2023-04-05T10:41:53;100608.91;;;7.02;32.37
41800;BME280;27468;47.460;19.034;2023-04-05T10:44:18;100629.88;;;7.03;33.52
41800;BME280;27468;47.460;19.034;2023-04-05T10:46:45;100606.31;;;6.94;34.03
41800;BME280;27468;47.460;19.034;2023-04-05T10:49:19;100618.53;;;7.01;34.05
41800;BME280;27468;47.460;19.034;2023-04-05T10:51:47;100645.59;;;7.23;34.18
41800;BME280;27468;47.460;19.034;2023-04-05T10:54:12;100606.28;;;7.02;34.22
41800;BME280;27468;47.460;19.034;2023-04-05T10:56:41;100645.56;;;7.32;33.85
41800;BME280;27468;47.460;19.034;2023-04-05T10:59:09;100635.09;;;7.23;32.96
41800;BME280;27468;47.460;19.034;2023-04-05T11:01:35;100642.97;;;7.15;32.63
41800;BME280;27468;47.460;19.034;2023-04-05T11:04:15;100625.50;;;7.11;32.56
41800;BME280;27468;47.460;19.034;2023-04-05T11:06:42;100640.34;;;7.20;33.37
41800;BME280;27468;47.460;19.034;2023-04-05T11:09:09;100641.22;;;7.25;32.77
41800;BME280;27468;47.460;19.034;2023-04-05T11:11:39;100626.38;;;7.12;33.29
41800;BME280;27468;47.460;19.034;2023-04-05T11:14:21;100624.63;;;7.18;33.62
41800;BME280;27468;47.460;19.034;2023-04-05T11:16:49;100627.22;;;7.26;33.22
41800;BME280;27468;47.460;19.034;2023-04-05T11:19:18;100635.97;;;7.26;33.14
41800;BME280;27468;47.460;19.034;2023-04-05T11:21:44;100634.22;;;7.33;32.71
41800;BME280;27468;47.460;19.034;2023-04-05T11:24:12;100631.56;;;7.39;32.91
41800;BME280;27468;47.460;19.034;2023-04-05T11:29:05;100610.59;;;7.32;33.20
41800;BME280;27468;47.460;19.034;2023-04-05T11:31:31;100633.28;;;7.46;32.20
41800;BME280;27468;47.460;19.034;2023-04-05T11:33:58;100629.72;;;7.56;31.94
41800;BME280;27468;47.460;19.034;2023-04-05T11:36:32;100587.84;;;7.37;32.39
41800;BME280;27468;47.460;19.034;2023-04-05T11:41:55;100577.38;;;7.31;32.60
41800;BME280;27468;47.460;19.034;2023-04-05T11:44:21;100617.47;;;7.58;32.69
41800;BME280;27468;47.460;19.034;2023-04-05T11:46:49;100572.13;;;7.40;32.97
41800;BME280;27468;47.460;19.034;2023-04-05T11:49:15;100625.31;;;7.68;31.92
41800;BME280;27468;47.460;19.034;2023-04-05T11:51:41;100570.38;;;7.36;31.26
41800;BME280;27468;47.460;19.034;2023-04-05T11:54:33;100598.25;;;7.58;30.95
41800;BME280;27468;47.460;19.034;2023-04-05T11:56:59;100589.50;;;7.54;29.69
41800;BME280;27468;47.460;19.034;2023-04-05T11:59:32;100604.34;;;7.61;29.29
41800;BME280;27468;47.460;19.034;2023-04-05T12:02:02;100549.38;;;7.37;29.49
41800;BME280;27468;47.460;19.034;2023-04-05T12:04:29;100609.56;;;7.74;29.74
41800;BME280;27468;47.460;19.034;2023-04-05T12:07:17;100599.06;;;7.71;30.46
41800;BME280;27468;47.460;19.034;2023-04-05T12:10:05;100547.53;;;7.53;29.53
41800;BME280;27468;47.460;19.034;2023-04-05T12:12:42;100590.28;;;7.78;29.08
41800;BME280;27468;47.460;19.034;2023-04-05T12:15:10;100575.41;;;7.80;29.84
41800;BME280;27468;47.460;19.034;2023-04-05T12:17:39;100590.25;;;7.85;29.12
41800;BME280;27468;47.460;19.034;2023-04-05T12:20:05;100558.00;;;7.62;30.43
41800;BME280;27468;47.460;19.034;2023-04-05T12:22:31;100528.28;;;7.57;30.79
41800;BME280;27468;47.460;19.034;2023-04-05T12:24:57;100564.03;;;7.79;30.53
41800;BME280;27468;47.460;19.034;2023-04-05T12:27:22;100557.00;;;7.83;30.01
41800;BME280;27468;47.460;19.034;2023-04-05T12:30:08;100581.41;;;8.00;28.38
41800;BME280;27468;47.460;19.034;2023-04-05T12:32:35;100520.31;;;7.75;27.67
41800;BME280;27468;47.460;19.034;2023-04-05T12:35:05;100529.03;;;7.79;26.50
41800;BME280;27468;47.460;19.034;2023-04-05T12:37:33;100570.81;;;8.12;26.14
41800;BME280;27468;47.460;19.034;2023-04-05T12:40:02;100501.94;;;7.74;27.07
41800;BME280;27468;47.460;19.034;2023-04-05T12:42:31;100528.09;;;7.90;27.15
41800;BME280;27468;47.460;19.034;2023-04-05T12:45:02;100537.69;;;7.96;26.84
41800;BME280;27468;47.460;19.034;2023-04-05T12:47:28;100531.56;;;7.97;26.57
41800;BME280;27468;47.460;19.034;2023-04-05T12:49:54;100518.41;;;7.99;27.88
41800;BME280;27468;47.460;19.034;2023-04-05T12:52:19;100545.34;;;8.23;27.41
41800;BME280;27468;47.460;19.034;2023-04-05T12:54:52;100561.84;;;8.47;26.88
41800;BME280;27468;47.460;19.034;2023-04-05T12:57:28;100531.31;;;8.26;26.61
41800;BME280;27468;47.460;19.034;2023-04-05T12:59:54;100561.84;;;8.44;25.68
41800;BME280;27468;47.460;19.034;2023-04-05T13:02:20;100514.72;;;8.21;26.02
41800;BME280;27468;47.460;19.034;2023-04-05T13:04:45;100507.72;;;8.21;26.34
41800;BME280;27468;47.460;19.034;2023-04-05T13:07:10;100498.06;;;8.25;26.96
41800;BME280;27468;47.460;19.034;2023-04-05T13:09:36;100524.22;;;8.40;27.11
41800;BME280;27468;47.460;19.034;2023-04-05T13:12:01;100516.38;;;8.36;27.51
41800;BME280;27468;47.460;19.034;2023-04-05T13:14:27;100544.22;;;8.59;28.29
41800;BME280;27468;47.460;19.034;2023-04-05T13:16:52;100518.88;;;8.51;28.00
41800;BME280;27468;47.460;19.034;2023-04-05T13:19:17;100524.13;;;8.51;28.04
41800;BME280;27468;47.460;19.034;2023-04-05T13:21:43;100549.41;;;8.66;28.03
41800;BME280;27468;47.460;19.034;2023-04-05T13:24:08;100500.53;;;8.46;27.64